sensor_id;sensor_type;location;lat;lon;timestamp;P1;durP1;ratioP1;P2;durP2;ratioP2
32407;SDS011;18869;55.970;37.502;2024-03-23T00:53:13;44.97;;;24.37;;
32407;SDS011;18869;55.970;37.502;2024-03-23T00:55:41;33.70;;;22.43;;
32407;SDS011;18869;55.970;37.502;2024-03-23T00:58:07;39.63;;;23.70;;
32407;SDS011;18869;55.970;37.502;2024-03-23T01:00:35;35.90;;;23.27;;
32407;SDS011;18869;55.970;37.502;2024-03-23T01:06:16;32.67;;;23.13;;
32407;SDS011;18869;55.970;37.502;2024-03-23T01:08:43;42.63;;;24.83;;
32407;SDS011;18869;55.970;37.502;2024-03-23T01:11:10;41.23;;;23.70;;
32407;SDS011;18869;55.970;37.502;2024-03-23T01:13:37;38.37;;;24.87;;
32407;SDS011;18869;55.970;37.502;2024-03-23T01:16:04;38.57;;;23.63;;
32407;SDS011;18869;55.970;37.502;2024-03-23T01:18:31;43.13;;;28.40;;
32407;SDS011;18869;55.970;37.502;2024-03-23T01:20:58;46.50;;;28.77;;
32407;SDS011;18869;55.970;37.502;2024-03-23T01:23:26;46.37;;;29.27;;
32407;SDS011;18869;55.970;37.502;2024-03-23T01:25:53;42.53;;;26.90;;
32407;SDS011;18869;55.970;37.502;2024-03-23T01:28:23;49.20;;;29.93;;
32407;SDS011;18869;55.970;37.502;2024-03-23T01:30:50;50.20;;;30.23;;
32407;SDS011;18869;55.970;37.502;2024-03-23T01:33:16;45.70;;;27.97;;
32407;SDS011;18869;55.970;37.502;2024-03-23T01:35:43;46.23;;;29.43;;
32407;SDS011;18869;55.970;37.502;2024-03-23T01:38:10;42.53;;;28.37;;
32407;SDS011;18869;55.970;37.502;2024-03-23T01:40:39;43.33;;;28.47;;
32407;SDS011;18869;55.970;37.502;2024-03-23T01:43:06;46.77;;;29.90;;
32407;SDS011;18869;55.970;37.502;2024-03-23T01:45:34;49.57;;;31.30;;
32407;SDS011;18869;55.970;37.502;2024-03-23T01:48:01;48.03;;;29.87;;
32407;SDS011;18869;55.970;37.502;2024-03-23T01:50:28;44.67;;;29.63;;
32407;SDS011;18869;55.970;37.502;2024-03-23T01:52:59;47.93;;;30.83;;
32407;SDS011;18869;55.970;37.502;2024-03-23T01:55:26;45.43;;;28.47;;
32407;SDS011;18869;55.970;37.502;2024-03-23T01:57:54;45.60;;;28.53;;
32407;SDS011;18869;55.970;37.502;2024-03-23T02:00:23;52.33;;;28.17;;
32407;SDS011;18869;55.970;37.502;2024-03-23T02:02:52;45.33;;;28.03;;
32407;SDS011;18869;55.970;37.502;2024-03-23T02:05:18;44.87;;;27.23;;
32407;SDS011;18869;55.970;37.502;2024-03-23T02:07:45;46.23;;;27.50;;
32407;SDS011;18869;55.970;37.502;2024-03-23T02:10:11;49.53;;;27.90;;
32407;SDS011;18869;55.970;37.502;2024-03-23T02:12:39;50.10;;;28.53;;
32407;SDS011;18869;55.970;37.502;2024-03-23T02:15:07;46.97;;;28.80;;
32407;SDS011;18869;55.970;37.502;2024-03-23T02:17:35;45.03;;;27.67;;
32407;SDS011;18869;55.970;37.502;2024-03-23T02:20:02;52.33;;;29.80;;
32407;SDS011;18869;55.970;37.502;2024-03-23T02:22:35;43.30;;;27.03;;
32407;SDS011;18869;55.970;37.502;2024-03-23T02:25:04;49.87;;;26.63;;
32407;SDS011;18869;55.970;37.502;2024-03-23T02:27:31;43.83;;;27.67;;
32407;SDS011;18869;55.970;37.502;2024-03-23T02:29:58;46.37;;;27.73;;
32407;SDS011;18869;55.970;37.502;2024-03-23T02:32:26;45.43;;;31.53;;
32407;SDS011;18869;55.970;37.502;2024-03-23T02:34:52;51.80;;;30.27;;
32407;SDS011;18869;55.970;37.502;2024-03-23T02:37:19;57.40;;;32.63;;
32407;SDS011;18869;55.970;37.502;2024-03-23T02:39:46;57.57;;;35.57;;
32407;SDS011;18869;55.970;37.502;2024-03-23T02:42:13;47.90;;;30.50;;
32407;SDS011;18869;55.970;37.502;2024-03-23T02:44:41;47.43;;;30.17;;
32407;SDS011;18869;55.970;37.502;2024-03-23T02:47:08;53.27;;;32.97;;
32407;SDS011;18869;55.970;37.502;2024-03-23T02:49:35;56.70;;;34.73;;
32407;SDS011;18869;55.970;37.502;2024-03-23T02:52:03;54.00;;;32.47;;
32407;SDS011;18869;55.970;37.502;2024-03-23T02:54:29;52.53;;;31.17;;
32407;SDS011;18869;55.970;37.502;2024-03-23T02:56:56;53.33;;;34.37;;
32407;SDS011;18869;55.970;37.502;2024-03-23T02:59:23;55.27;;;35.47;;
32407;SDS011;18869;55.970;37.502;2024-03-23T03:01:50;55.83;;;35.00;;
32407;SDS011;18869;55.970;37.502;2024-03-23T03:04:17;57.53;;;36.97;;
32407;SDS011;18869;55.970;37.502;2024-03-23T03:06:46;60.27;;;35.80;;
32407;SDS011;18869;55.970;37.502;2024-03-23T03:09:13;59.73;;;36.47;;
32407;SDS011;18869;55.970;37.502;2024-03-23T03:11:40;67.00;;;42.33;;
32407;SDS011;18869;55.970;37.502;2024-03-23T03:14:06;66.80;;;41.47;;
32407;SDS011;18869;55.970;37.502;2024-03-23T03:16:34;65.90;;;40.43;;
32407;SDS011;18869;55.970;37.502;2024-03-23T03:19:01;65.50;;;38.63;;
32407;SDS011;18869;55.970;37.502;2024-03-23T03:21:27;61.57;;;38.27;;
32407;SDS011;18869;55.970;37.502;2024-03-23T03:23:54;63.13;;;37.13;;
32407;SDS011;18869;55.970;37.502;2024-03-23T03:26:24;57.23;;;36.93;;
32407;SDS011;18869;55.970;37.502;2024-03-23T03:28:50;56.03;;;34.97;;
32407;SDS011;18869;55.970;37.502;2024-03-23T03:31:20;53.43;;;33.03;;
32407;SDS011;18869;55.970;37.502;2024-03-23T03:33:49;50.73;;;31.53;;
32407;SDS011;18869;55.970;37.502;2024-03-23T03:36:17;54.93;;;34.07;;
32407;SDS011;18869;55.970;37.502;2024-03-23T03:38:43;51.30;;;31.33;;
32407;SDS011;18869;55.970;37.502;2024-03-23T03:41:10;48.27;;;29.67;;
32407;SDS011;18869;55.970;37.502;2024-03-23T03:43:37;40.40;;;27.47;;
32407;SDS011;18869;55.970;37.502;2024-03-23T03:46:04;43.43;;;28.50;;
32407;SDS011;18869;55.970;37.502;2024-03-23T03:48:31;45.40;;;27.63;;
32407;SDS011;18869;55.970;37.502;2024-03-23T03:51:00;41.60;;;26.30;;
32407;SDS011;18869;55.970;37.502;2024-03-23T03:53:27;43.00;;;27.70;;
32407;SDS011;18869;55.970;37.502;2024-03-23T03:55:54;40.73;;;26.03;;
32407;SDS011;18869;55.970;37.502;2024-03-23T03:58:21;42.03;;;26.77;;
32407;SDS011;18869;55.970;37.502;2024-03-23T04:00:48;44.27;;;27.47;;
32407;SDS011;18869;55.970;37.502;2024-03-23T04:03:14;45.43;;;28.53;;
32407;SDS011;18869;55.970;37.502;2024-03-23T04:05:42;47.60;;;28.37;;
32407;SDS011;18869;55.970;37.502;2024-03-23T04:08:09;46.00;;;28.67;;
32407;SDS011;18869;55.970;37.502;2024-03-23T04:10:36;47.63;;;32.87;;
32407;SDS011;18869;55.970;37.502;2024-03-23T04:13:02;52.73;;;30.77;;
32407;SDS011;18869;55.970;37.502;2024-03-23T04:15:30;52.63;;;33.00;;
32407;SDS011;18869;55.970;37.502;2024-03-23T04:17:57;51.80;;;33.57;;
32407;SDS011;18869;55.970;37.502;2024-03-23T04:20:24;54.47;;;34.03;;
32407;SDS011;18869;55.970;37.502;2024-03-23T04:22:51;52.57;;;33.30;;
32407;SDS011;18869;55.970;37.502;2024-03-23T04:25:19;54.17;;;32.70;;
32407;SDS011;18869;55.970;37.502;2024-03-23T04:27:46;51.20;;;33.23;;
32407;SDS011;18869;55.970;37.502;2024-03-23T04:30:13;51.03;;;33.10;;
32407;SDS011;18869;55.970;37.502;2024-03-23T04:32:42;50.93;;;32.23;;
32407;SDS011;18869;55.970;37.502;2024-03-23T04:35:09;51.70;;;31.43;;
32407;SDS011;18869;55.970;37.502;2024-03-23T04:37:35;51.73;;;32.13;;
32407;SDS011;18869;55.970;37.502;2024-03-23T04:40:03;46.57;;;30.70;;
32407;SDS011;18869;55.970;37.502;2024-03-23T04:42:33;49.27;;;29.77;;
32407;SDS011;18869;55.970;37.502;2024-03-23T04:45:00;48.10;;;30.17;;
32407;SDS011;18869;55.970;37.502;2024-03-23T04:47:30;44.60;;;28.50;;
32407;SDS011;18869;55.970;37.502;2024-03-23T04:49:56;43.17;;;28.77;;
32407;SDS011;18869;55.970;37.502;2024-03-23T04:52:23;44.00;;;26.73;;
32407;SDS011;18869;55.970;37.502;2024-03-23T04:54:50;40.97;;;27.30;;
32407;SDS011;18869;55.970;37.502;2024-03-23T04:57:17;39.83;;;26.80;;
32407;SDS011;18869;55.970;37.502;2024-03-23T04:59:47;46.97;;;27.60;;
32407;SDS011;18869;55.970;37.502;2024-03-23T05:02:14;45.07;;;27.83;;
32407;SDS011;18869;55.970;37.502;2024-03-23T05:04:42;42.30;;;26.27;;
32407;SDS011;18869;55.970;37.502;2024-03-23T05:07:09;45.93;;;28.47;;
32407;SDS011;18869;55.970;37.502;2024-03-23T05:09:37;38.53;;;26.77;;
32407;SDS011;18869;55.970;37.502;2024-03-23T05:12:03;39.30;;;25.83;;
32407;SDS011;18869;55.970;37.502;2024-03-23T05:14:31;43.70;;;27.73;;
32407;SDS011;18869;55.970;37.502;2024-03-23T05:16:59;37.43;;;25.87;;
32407;SDS011;18869;55.970;37.502;2024-03-23T05:19:27;44.27;;;26.63;;
32407;SDS011;18869;55.970;37.502;2024-03-23T05:21:53;41.23;;;27.07;;
32407;SDS011;18869;55.970;37.502;2024-03-23T05:24:20;39.33;;;25.30;;
32407;SDS011;18869;55.970;37.502;2024-03-23T05:26:46;35.73;;;24.23;;
32407;SDS011;18869;55.970;37.502;2024-03-23T05:29:15;36.20;;;23.97;;
32407;SDS011;18869;55.970;37.502;2024-03-23T05:31:43;32.23;;;22.10;;
32407;SDS011;18869;55.970;37.502;2024-03-23T05:34:10;35.93;;;23.07;;
32407;SDS011;18869;55.970;37.502;2024-03-23T05:36:37;36.93;;;24.43;;
32407;SDS011;18869;55.970;37.502;2024-03-23T05:39:05;35.37;;;22.93;;
32407;SDS011;18869;55.970;37.502;2024-03-23T05:41:35;36.87;;;22.67;;
32407;SDS011;18869;55.970;37.502;2024-03-23T05:44:03;34.20;;;23.20;;
32407;SDS011;18869;55.970;37.502;2024-03-23T05:46:30;34.20;;;22.23;;
32407;SDS011;18869;55.970;37.502;2024-03-23T05:48:57;36.53;;;23.53;;
32407;SDS011;18869;55.970;37.502;2024-03-23T05:51:28;32.40;;;21.23;;
32407;SDS011;18869;55.970;37.502;2024-03-23T05:53:56;30.43;;;21.80;;
32407;SDS011;18869;55.970;37.502;2024-03-23T05:56:22;30.60;;;20.87;;
32407;SDS011;18869;55.970;37.502;2024-03-23T05:58:51;31.03;;;21.73;;
32407;SDS011;18869;55.970;37.502;2024-03-23T06:01:18;35.10;;;21.83;;
32407;SDS011;18869;55.970;37.502;2024-03-23T06:03:46;26.07;;;20.03;;
32407;SDS011;18869;55.970;37.502;2024-03-23T06:06:12;26.73;;;19.60;;
32407;SDS011;18869;55.970;37.502;2024-03-23T06:08:40;28.27;;;17.70;;
32407;SDS011;18869;55.970;37.502;2024-03-23T06:11:07;22.47;;;17.03;;
32407;SDS011;18869;55.970;37.502;2024-03-23T06:13:34;21.63;;;16.87;;
32407;SDS011;18869;55.970;37.502;2024-03-23T06:16:02;23.50;;;17.80;;
32407;SDS011;18869;55.970;37.502;2024-03-23T06:18:29;19.80;;;16.07;;
32407;SDS011;18869;55.970;37.502;2024-03-23T06:20:57;21.60;;;15.90;;
32407;SDS011;18869;55.970;37.502;2024-03-23T06:23:24;18.83;;;16.20;;
32407;SDS011;18869;55.970;37.502;2024-03-23T06:25:54;20.53;;;16.03;;
32407;SDS011;18869;55.970;37.502;2024-03-23T06:28:20;21.90;;;16.73;;
32407;SDS011;18869;55.970;37.502;2024-03-23T06:30:47;22.33;;;15.37;;
32407;SDS011;18869;55.970;37.502;2024-03-23T06:33:13;21.47;;;15.40;;
32407;SDS011;18869;55.970;37.502;2024-03-23T06:35:40;21.10;;;14.83;;
32407;SDS011;18869;55.970;37.502;2024-03-23T06:38:07;16.03;;;13.97;;
32407;SDS011;18869;55.970;37.502;2024-03-23T06:40:35;19.27;;;14.47;;
32407;SDS011;18869;55.970;37.502;2024-03-23T06:43:02;18.13;;;14.67;;
32407;SDS011;18869;55.970;37.502;2024-03-23T06:45:31;20.13;;;15.43;;
32407;SDS011;18869;55.970;37.502;2024-03-23T06:47:58;17.07;;;15.17;;
32407;SDS011;18869;55.970;37.502;2024-03-23T06:50:24;19.97;;;15.60;;
32407;SDS011;18869;55.970;37.502;2024-03-23T06:52:51;17.47;;;13.80;;
32407;SDS011;18869;55.970;37.502;2024-03-23T06:55:18;17.43;;;13.93;;
32407;SDS011;18869;55.970;37.502;2024-03-23T06:57:44;17.53;;;14.47;;
32407;SDS011;18869;55.970;37.502;2024-03-23T07:00:12;18.17;;;14.37;;
32407;SDS011;18869;55.970;37.502;2024-03-23T07:02:42;15.37;;;13.73;;
32407;SDS011;18869;55.970;37.502;2024-03-23T07:05:09;16.90;;;13.43;;
32407;SDS011;18869;55.970;37.502;2024-03-23T07:07:37;17.97;;;14.07;;
32407;SDS011;18869;55.970;37.502;2024-03-23T07:10:05;20.77;;;14.37;;
32407;SDS011;18869;55.970;37.502;2024-03-23T07:12:32;15.93;;;12.93;;
32407;SDS011;18869;55.970;37.502;2024-03-23T07:14:59;17.40;;;13.20;;
32407;SDS011;18869;55.970;37.502;2024-03-23T07:17:27;16.93;;;13.13;;
32407;SDS011;18869;55.970;37.502;2024-03-23T07:19:53;13.10;;;11.70;;
32407;SDS011;18869;55.970;37.502;2024-03-23T07:22:20;14.23;;;12.73;;
32407;SDS011;18869;55.970;37.502;2024-03-23T07:24:47;15.13;;;12.33;;
32407;SDS011;18869;55.970;37.502;2024-03-23T07:27:14;15.67;;;11.83;;
32407;SDS011;18869;55.970;37.502;2024-03-23T07:29:40;14.77;;;12.20;;
32407;SDS011;18869;55.970;37.502;2024-03-23T07:32:08;13.67;;;11.37;;
32407;SDS011;18869;55.970;37.502;2024-03-23T07:34:35;17.50;;;12.27;;
32407;SDS011;18869;55.970;37.502;2024-03-23T07:37:02;13.97;;;11.90;;
32407;SDS011;18869;55.970;37.502;2024-03-23T07:39:31;15.10;;;12.37;;
32407;SDS011;18869;55.970;37.502;2024-03-23T07:41:59;13.33;;;11.90;;
32407;SDS011;18869;55.970;37.502;2024-03-23T07:44:26;15.03;;;11.23;;
32407;SDS011;18869;55.970;37.502;2024-03-23T07:46:55;14.40;;;11.97;;
32407;SDS011;18869;55.970;37.502;2024-03-23T07:49:23;15.43;;;12.13;;
32407;SDS011;18869;55.970;37.502;2024-03-23T07:51:50;14.77;;;11.73;;
32407;SDS011;18869;55.970;37.502;2024-03-23T07:54:17;15.87;;;12.37;;
32407;SDS011;18869;55.970;37.502;2024-03-23T07:56:43;13.17;;;11.77;;
32407;SDS011;18869;55.970;37.502;2024-03-23T07:59:10;14.23;;;11.67;;
32407;SDS011;18869;55.970;37.502;2024-03-23T08:01:37;12.97;;;11.50;;
32407;SDS011;18869;55.970;37.502;2024-03-23T08:04:05;14.47;;;11.70;;
32407;SDS011;18869;55.970;37.502;2024-03-23T08:06:32;12.60;;;11.27;;
32407;SDS011;18869;55.970;37.502;2024-03-23T08:08:59;14.83;;;11.73;;
32407;SDS011;18869;55.970;37.502;2024-03-23T08:11:26;13.07;;;11.50;;
32407;SDS011;18869;55.970;37.502;2024-03-23T08:13:55;12.10;;;10.73;;
32407;SDS011;18869;55.970;37.502;2024-03-23T08:16:22;13.10;;;11.43;;
32407;SDS011;18869;55.970;37.502;2024-03-23T08:18:53;14.27;;;11.40;;
32407;SDS011;18869;55.970;37.502;2024-03-23T08:21:21;12.37;;;11.03;;
32407;SDS011;18869;55.970;37.502;2024-03-23T08:23:52;14.43;;;11.17;;
32407;SDS011;18869;55.970;37.502;2024-03-23T08:26:19;12.00;;;10.17;;
32407;SDS011;18869;55.970;37.502;2024-03-23T08:28:46;11.50;;;10.33;;
32407;SDS011;18869;55.970;37.502;2024-03-23T08:31:14;14.17;;;11.63;;
32407;SDS011;18869;55.970;37.502;2024-03-23T08:33:42;12.97;;;11.67;;
32407;SDS011;18869;55.970;37.502;2024-03-23T08:36:10;13.20;;;10.93;;
32407;SDS011;18869;55.970;37.502;2024-03-23T08:38:38;12.47;;;11.20;;
32407;SDS011;18869;55.970;37.502;2024-03-23T08:41:05;14.27;;;12.60;;
32407;SDS011;18869;55.970;37.502;2024-03-23T08:43:35;12.67;;;10.37;;
32407;SDS011;18869;55.970;37.502;2024-03-23T08:46:04;13.00;;;11.10;;
32407;SDS011;18869;55.970;37.502;2024-03-23T08:48:32;12.37;;;11.07;;
32407;SDS011;18869;55.970;37.502;2024-03-23T08:51:00;12.07;;;10.80;;
32407;SDS011;18869;55.970;37.502;2024-03-23T08:53:28;12.63;;;11.33;;
32407;SDS011;18869;55.970;37.502;2024-03-23T08:55:55;11.17;;;9.87;;
32407;SDS011;18869;55.970;37.502;2024-03-23T08:58:24;12.53;;;11.13;;
32407;SDS011;18869;55.970;37.502;2024-03-23T09:00:52;12.33;;;11.10;;
32407;SDS011;18869;55.970;37.502;2024-03-23T09:03:22;11.20;;;10.20;;
32407;SDS011;18869;55.970;37.502;2024-03-23T09:05:48;12.40;;;10.50;;
32407;SDS011;18869;55.970;37.502;2024-03-23T09:08:16;11.33;;;9.83;;
32407;SDS011;18869;55.970;37.502;2024-03-23T09:10:42;13.00;;;11.70;;
32407;SDS011;18869;55.970;37.502;2024-03-23T09:13:09;11.40;;;10.20;;
32407;SDS011;18869;55.970;37.502;2024-03-23T09:15:37;11.77;;;10.57;;
32407;SDS011;18869;55.970;37.502;2024-03-23T09:18:11;10.70;;;9.50;;
32407;SDS011;18869;55.970;37.502;2024-03-23T09:20:39;11.70;;;10.50;;
32407;SDS011;18869;55.970;37.502;2024-03-23T09:23:05;12.50;;;10.00;;
32407;SDS011;18869;55.970;37.502;2024-03-23T09:25:35;12.30;;;10.20;;
32407;SDS011;18869;55.970;37.502;2024-03-23T09:28:03;12.83;;;10.67;;
32407;SDS011;18869;55.970;37.502;2024-03-23T09:30:31;12.27;;;10.60;;
32407;SDS011;18869;55.970;37.502;2024-03-23T09:32:59;10.50;;;9.47;;
32407;SDS011;18869;55.970;37.502;2024-03-23T09:35:27;10.93;;;9.63;;
32407;SDS011;18869;55.970;37.502;2024-03-23T09:37:55;11.53;;;10.10;;
32407;SDS011;18869;55.970;37.502;2024-03-23T09:40:22;12.37;;;9.07;;
32407;SDS011;18869;55.970;37.502;2024-03-23T09:42:50;11.47;;;9.73;;
32407;SDS011;18869;55.970;37.502;2024-03-23T09:45:17;11.80;;;10.60;;
32407;SDS011;18869;55.970;37.502;2024-03-23T09:47:46;10.93;;;9.83;;
32407;SDS011;18869;55.970;37.502;2024-03-23T09:50:13;11.10;;;9.73;;
32407;SDS011;18869;55.970;37.502;2024-03-23T09:52:40;11.30;;;9.90;;
32407;SDS011;18869;55.970;37.502;2024-03-23T09:55:09;11.33;;;10.23;;
32407;SDS011;18869;55.970;37.502;2024-03-23T09:57:36;12.90;;;10.13;;
32407;SDS011;18869;55.970;37.502;2024-03-23T10:00:03;10.20;;;9.20;;
32407;SDS011;18869;55.970;37.502;2024-03-23T10:02:33;10.83;;;9.73;;
32407;SDS011;18869;55.970;37.502;2024-03-23T10:05:01;11.17;;;9.93;;
32407;SDS011;18869;55.970;37.502;2024-03-23T10:07:31;11.47;;;10.27;;
32407;SDS011;18869;55.970;37.502;2024-03-23T10:09:58;12.83;;;10.97;;
32407;SDS011;18869;55.970;37.502;2024-03-23T10:12:40;11.83;;;10.67;;
32407;SDS011;18869;55.970;37.502;2024-03-23T10:15:13;11.30;;;10.07;;
32407;SDS011;18869;55.970;37.502;2024-03-23T10:17:42;10.97;;;9.87;;
32407;SDS011;18869;55.970;37.502;2024-03-23T10:20:10;11.03;;;9.93;;
32407;SDS011;18869;55.970;37.502;2024-03-23T10:22:38;11.07;;;10.00;;
32407;SDS011;18869;55.970;37.502;2024-03-23T10:25:10;11.93;;;10.33;;
32407;SDS011;18869;55.970;37.502;2024-03-23T10:27:39;12.00;;;10.70;;
32407;SDS011;18869;55.970;37.502;2024-03-23T10:30:10;12.37;;;10.60;;
32407;SDS011;18869;55.970;37.502;2024-03-23T10:32:38;10.23;;;9.07;;
32407;SDS011;18869;55.970;37.502;2024-03-23T10:35:15;10.47;;;9.23;;
32407;SDS011;18869;55.970;37.502;2024-03-23T10:37:45;11.30;;;10.17;;
32407;SDS011;18869;55.970;37.502;2024-03-23T10:40:15;13.63;;;10.37;;
32407;SDS011;18869;55.970;37.502;2024-03-23T10:42:42;10.97;;;9.00;;
32407;SDS011;18869;55.970;37.502;2024-03-23T10:45:09;11.27;;;10.17;;
32407;SDS011;18869;55.970;37.502;2024-03-23T10:47:36;12.40;;;9.83;;
32407;SDS011;18869;55.970;37.502;2024-03-23T10:50:04;11.90;;;10.07;;
32407;SDS011;18869;55.970;37.502;2024-03-23T10:52:31;10.80;;;9.70;;
32407;SDS011;18869;55.970;37.502;2024-03-23T10:54:59;11.57;;;9.80;;
32407;SDS011;18869;55.970;37.502;2024-03-23T10:57:30;10.70;;;9.60;;
32407;SDS011;18869;55.970;37.502;2024-03-23T11:00:02;12.17;;;9.40;;
32407;SDS011;18869;55.970;37.502;2024-03-23T11:02:31;11.57;;;9.80;;
32407;SDS011;18869;55.970;37.502;2024-03-23T11:04:57;10.87;;;9.63;;
32407;SDS011;18869;55.970;37.502;2024-03-23T11:07:31;10.63;;;9.40;;
32407;SDS011;18869;55.970;37.502;2024-03-23T11:09:58;11.03;;;9.93;;
32407;SDS011;18869;55.970;37.502;2024-03-23T11:12:26;11.73;;;9.20;;
32407;SDS011;18869;55.970;37.502;2024-03-23T11:14:59;11.17;;;9.53;;
32407;SDS011;18869;55.970;37.502;2024-03-23T11:17:30;9.37;;;8.47;;
32407;SDS011;18869;55.970;37.502;2024-03-23T11:20:00;11.33;;;10.13;;
32407;SDS011;18869;55.970;37.502;2024-03-23T11:22:40;12.00;;;10.77;;
32407;SDS011;18869;55.970;37.502;2024-03-23T11:25:18;11.90;;;10.03;;
32407;SDS011;18869;55.970;37.502;2024-03-23T11:27:47;12.53;;;10.00;;
32407;SDS011;18869;55.970;37.502;2024-03-23T11:30:16;10.87;;;9.77;;
32407;SDS011;18869;55.970;37.502;2024-03-23T11:32:44;11.27;;;9.37;;
32407;SDS011;18869;55.970;37.502;2024-03-23T11:35:28;12.00;;;10.70;;
32407;SDS011;18869;55.970;37.502;2024-03-23T11:38:03;15.23;;;12.17;;
32407;SDS011;18869;55.970;37.502;2024-03-23T11:40:32;12.83;;;11.07;;
32407;SDS011;18869;55.970;37.502;2024-03-23T11:43:00;13.70;;;10.53;;
32407;SDS011;18869;55.970;37.502;2024-03-23T11:45:28;10.70;;;9.70;;
32407;SDS011;18869;55.970;37.502;2024-03-23T11:48:02;12.30;;;10.40;;
32407;SDS011;18869;55.970;37.502;2024-03-23T11:50:33;11.20;;;10.10;;
32407;SDS011;18869;55.970;37.502;2024-03-23T11:53:08;10.80;;;9.70;;
32407;SDS011;18869;55.970;37.502;2024-03-23T11:55:39;12.00;;;10.20;;
32407;SDS011;18869;55.970;37.502;2024-03-23T11:58:08;10.13;;;9.17;;
32407;SDS011;18869;55.970;37.502;2024-03-23T12:00:35;11.73;;;10.53;;
32407;SDS011;18869;55.970;37.502;2024-03-23T12:03:03;9.87;;;8.87;;
32407;SDS011;18869;55.970;37.502;2024-03-23T12:05:30;13.43;;;10.53;;
32407;SDS011;18869;55.970;37.502;2024-03-23T12:10:43;9.70;;;8.80;;
32407;SDS011;18869;55.970;37.502;2024-03-23T12:13:11;10.80;;;9.70;;
32407;SDS011;18869;55.970;37.502;2024-03-23T12:15:44;11.10;;;9.83;;
32407;SDS011;18869;55.970;37.502;2024-03-23T12:18:11;9.87;;;8.90;;
32407;SDS011;18869;55.970;37.502;2024-03-23T12:20:38;10.23;;;9.10;;
32407;SDS011;18869;55.970;37.502;2024-03-23T12:23:10;10.17;;;9.17;;
32407;SDS011;18869;55.970;37.502;2024-03-23T12:25:38;10.87;;;9.77;;
32407;SDS011;18869;55.970;37.502;2024-03-23T12:28:06;9.47;;;8.57;;
32407;SDS011;18869;55.970;37.502;2024-03-23T12:30:34;8.90;;;8.10;;
32407;SDS011;18869;55.970;37.502;2024-03-23T12:33:02;9.47;;;8.57;;
32407;SDS011;18869;55.970;37.502;2024-03-23T12:35:29;9.00;;;8.00;;
32407;SDS011;18869;55.970;37.502;2024-03-23T12:38:00;9.97;;;8.50;;
32407;SDS011;18869;55.970;37.502;2024-03-23T12:40:26;9.80;;;8.80;;
32407;SDS011;18869;55.970;37.502;2024-03-23T12:42:54;10.07;;;9.03;;
32407;SDS011;18869;55.970;37.502;2024-03-23T12:45:21;9.73;;;8.73;;
32407;SDS011;18869;55.970;37.502;2024-03-23T12:47:48;9.73;;;8.73;;
32407;SDS011;18869;55.970;37.502;2024-03-23T12:50:16;9.83;;;8.83;;
32407;SDS011;18869;55.970;37.502;2024-03-23T12:52:43;10.57;;;9.57;;
32407;SDS011;18869;55.970;37.502;2024-03-23T12:55:10;9.67;;;8.77;;
32407;SDS011;18869;55.970;37.502;2024-03-23T12:57:37;9.87;;;8.87;;
32407;SDS011;18869;55.970;37.502;2024-03-23T13:00:04;10.30;;;9.30;;
32407;SDS011;18869;55.970;37.502;2024-03-23T13:02:32;9.70;;;8.80;;
32407;SDS011;18869;55.970;37.502;2024-03-23T13:05:01;12.70;;;8.63;;
32407;SDS011;18869;55.970;37.502;2024-03-23T13:07:30;9.97;;;8.80;;
32407;SDS011;18869;55.970;37.502;2024-03-23T13:09:57;9.77;;;8.73;;
32407;SDS011;18869;55.970;37.502;2024-03-23T13:12:24;10.83;;;9.73;;
32407;SDS011;18869;55.970;37.502;2024-03-23T13:14:50;11.27;;;10.13;;
32407;SDS011;18869;55.970;37.502;2024-03-23T13:17:17;10.87;;;9.77;;
32407;SDS011;18869;55.970;37.502;2024-03-23T13:19:44;9.43;;;8.47;;
32407;SDS011;18869;55.970;37.502;2024-03-23T13:22:11;10.37;;;9.27;;
32407;SDS011;18869;55.970;37.502;2024-03-23T13:24:38;13.27;;;10.87;;
32407;SDS011;18869;55.970;37.502;2024-03-23T13:27:05;12.30;;;11.00;;
32407;SDS011;18869;55.970;37.502;2024-03-23T13:29:34;11.80;;;10.57;;
32407;SDS011;18869;55.970;37.502;2024-03-23T13:32:01;10.73;;;9.67;;
32407;SDS011;18869;55.970;37.502;2024-03-23T13:34:28;12.23;;;10.60;;
32407;SDS011;18869;55.970;37.502;2024-03-23T13:36:55;12.53;;;10.17;;
32407;SDS011;18869;55.970;37.502;2024-03-23T13:39:23;11.87;;;10.23;;
32407;SDS011;18869;55.970;37.502;2024-03-23T13:41:54;10.97;;;9.33;;
32407;SDS011;18869;55.970;37.502;2024-03-23T13:44:21;12.10;;;10.90;;
32407;SDS011;18869;55.970;37.502;2024-03-23T13:46:49;11.80;;;10.40;;
32407;SDS011;18869;55.970;37.502;2024-03-23T13:52:02;11.73;;;10.53;;
32407;SDS011;18869;55.970;37.502;2024-03-23T13:54:29;12.20;;;10.60;;
32407;SDS011;18869;55.970;37.502;2024-03-23T13:56:58;11.37;;;9.73;;
32407;SDS011;18869;55.970;37.502;2024-03-23T13:59:25;13.27;;;9.70;;
32407;SDS011;18869;55.970;37.502;2024-03-23T14:01:52;11.47;;;10.23;;
32407;SDS011;18869;55.970;37.502;2024-03-23T14:04:18;12.47;;;11.17;;
32407;SDS011;18869;55.970;37.502;2024-03-23T14:06:46;13.67;;;10.23;;
32407;SDS011;18869;55.970;37.502;2024-03-23T14:09:13;12.00;;;10.60;;
32407;SDS011;18869;55.970;37.502;2024-03-23T14:11:41;11.43;;;10.23;;
32407;SDS011;18869;55.970;37.502;2024-03-23T14:14:10;11.37;;;9.83;;
32407;SDS011;18869;55.970;37.502;2024-03-23T14:16:37;11.17;;;10.00;;
32407;SDS011;18869;55.970;37.502;2024-03-23T14:19:04;11.67;;;10.47;;
32407;SDS011;18869;55.970;37.502;2024-03-23T14:21:32;11.33;;;10.13;;
32407;SDS011;18869;55.970;37.502;2024-03-23T14:24:00;11.73;;;10.10;;
32407;SDS011;18869;55.970;37.502;2024-03-23T14:26:30;13.83;;;10.53;;
32407;SDS011;18869;55.970;37.502;2024-03-23T14:29:07;11.17;;;9.97;;
32407;SDS011;18869;55.970;37.502;2024-03-23T14:31:36;10.80;;;9.70;;
32407;SDS011;18869;55.970;37.502;2024-03-23T14:34:02;14.10;;;10.80;;
32407;SDS011;18869;55.970;37.502;2024-03-23T14:36:29;13.83;;;10.20;;
32407;SDS011;18869;55.970;37.502;2024-03-23T14:38:56;11.50;;;9.63;;
32407;SDS011;18869;55.970;37.502;2024-03-23T14:41:22;11.20;;;9.93;;
32407;SDS011;18869;55.970;37.502;2024-03-23T14:43:50;11.63;;;10.53;;
32407;SDS011;18869;55.970;37.502;2024-03-23T14:46:19;11.37;;;10.27;;
32407;SDS011;18869;55.970;37.502;2024-03-23T14:48:47;11.67;;;10.43;;
32407;SDS011;18869;55.970;37.502;2024-03-23T14:51:14;12.50;;;10.40;;
32407;SDS011;18869;55.970;37.502;2024-03-23T14:53:45;12.13;;;10.80;;
32407;SDS011;18869;55.970;37.502;2024-03-23T14:56:15;11.30;;;9.90;;
32407;SDS011;18869;55.970;37.502;2024-03-23T14:58:42;16.23;;;10.90;;
32407;SDS011;18869;55.970;37.502;2024-03-23T15:01:08;11.73;;;9.80;;
32407;SDS011;18869;55.970;37.502;2024-03-23T15:03:36;10.63;;;9.53;;
32407;SDS011;18869;55.970;37.502;2024-03-23T15:06:07;11.17;;;9.60;;
32407;SDS011;18869;55.970;37.502;2024-03-23T15:08:35;10.17;;;9.20;;
32407;SDS011;18869;55.970;37.502;2024-03-23T15:11:02;11.13;;;10.03;;
32407;SDS011;18869;55.970;37.502;2024-03-23T15:13:31;11.20;;;10.00;;
32407;SDS011;18869;55.970;37.502;2024-03-23T15:15:57;11.87;;;10.17;;
32407;SDS011;18869;55.970;37.502;2024-03-23T15:18:24;13.60;;;10.53;;